首页
METAR-TAF:

METAR-TAF

机场 :

阿勒特機場

阿勒特, 努那武特, 加拿大

纬度: 82-31N, 经度: 062-17W, 海拔: 31米

当前天气观测

该预报发布于28分钟前的11:00 UTC
风速3节,风向西
温度 -31°C
湿度 75%
气压 1023 hPa
能見度: 16.1公里
少量云层高于2200英尺
冰针

METAR: CYLT 181100Z 27003KT 10SM IC FEW022 M31/M34 A3020 RMK SC2 WND ESTD SLP234

时间: 06:28 (11:28 UTC)

预报

该预报发布于3小时和22分钟前的08:06 UTC
预报有效从18日的 08点(UTC)到 18日的 21点(UTC)
风速3节,风向多变
能見度: 8.0公里
阴天层高于3000英尺
冰针
短暂存在
从 18日的 08点(UTC)到 18日的 15点(UTC)
能見度: 10公里
小雪
从 18日的 1500点(UTC)
风速3节,风向多变
能見度: 10公里
多云层高于3000英尺
短暂存在
从 18日的 15点(UTC)到 18日的 21点(UTC)
能見度: 8.0公里
小雪

TAF: CYLT 180806Z 1808/1821 VRB03KT 5SM IC OVC030 TEMPO 1808/1815 P6SM -SN FM181500 VRB03KT P6SM BKN030 TEMPO 1815/1821 5SM -SN RMK NXT FCST BY 181200Z

超过4000个机场的气象观测和天气预报(METAR&TAF报告)。

可查询的气象台以黄色和红色小点在地图上表示。

将鼠标移到小点上方,可查看气象台名称。

然后点击查看天气观测和预报。

如需切换地图:点击带黑十字的绿色按钮放大地图;点击带横线的绿色按钮缩小地图;或者点击绿色箭头查看邻近地区的地图。


METAR-TAF: